< Typhoon 201013 2010 Season Typhoon 201101 >
Typhoon 201014 (CHABA)
General InformationTrack Information on Google MapsDetailed Wind InformationAccess Analytics MapList of All Images || NewsDisaster Info.WeblogTrackbackTyphoon FrontTwiphoonTyphoon Now!Typhoon ImaginationResourceGoogle EarthGE AnimationAtom FeedGeoJSON
Detalied Best Track (Time Zone = UTC)
Year Month Day Hour Lat. Long. Pressure (hPa) Wind (kt) Class Image Chart
2010 10 23 18 15.0 133.6 1004 0 2 Image Chart
2010 10 24 00 15.1 133.1 1004 0 2 Image Chart
2010 10 24 06 15.4 132.6 1002 0 2 Image Chart
2010 10 24 12 16.0 131.9 1000 0 2 Image Chart
2010 10 24 18 16.8 131.2 996 35 3 Image Chart
2010 10 25 00 16.9 131.0 992 45 3 Image Chart
2010 10 25 06 17.4 130.5 990 45 3 Image Chart
2010 10 25 12 17.8 130.0 985 55 4 Image Chart
2010 10 25 18 18.6 129.5 980 60 4 Image Chart
2010 10 26 00 19.2 128.9 975 65 5 Image Chart
2010 10 26 06 19.7 128.6 975 65 5 Image Chart
2010 10 26 12 20.1 128.2 970 70 5 Image Chart
2010 10 26 18 20.5 127.9 965 70 5 Image Chart
2010 10 27 00 20.7 127.9 960 75 5 Image Chart
2010 10 27 06 21.7 127.9 955 80 5 Image Chart
2010 10 27 12 22.4 128.0 945 85 5 Image Chart
2010 10 27 18 23.3 128.3 945 85 5 Image Chart
2010 10 28 00 24.3 128.6 935 90 5 Image Chart
2010 10 28 03 24.5 128.8 935 90 5 Image Chart
2010 10 28 06 24.8 129.2 930 95 5 Image Chart
2010 10 28 09 25.2 129.6 930 95 5 Image Chart
2010 10 28 12 25.6 130.1 935 95 5 Image Chart
2010 10 28 15 26.0 130.5 940 90 5 Image Chart
2010 10 28 18 26.3 130.9 940 85 5 Image Chart
2010 10 28 21 26.9 131.4 940 85 5 Image Chart
2010 10 29 00 27.2 131.6 945 80 5 Image Chart
2010 10 29 03 27.6 132.0 950 75 5 Image Chart
2010 10 29 06 28.2 132.8 955 70 5 Image Chart
2010 10 29 09 28.6 133.4 955 70 5 Image Chart
2010 10 29 12 29.1 134.1 960 70 5 Image Chart
2010 10 29 15 29.8 134.8 960 70 5 Image Chart
2010 10 29 18 30.6 135.6 965 65 5 Image Chart
2010 10 29 21 31.3 136.4 970 65 5 Image Chart
2010 10 30 00 31.9 137.2 975 65 5 Image Chart
2010 10 30 03 32.8 138.2 975 65 5 Image Chart
2010 10 30 06 33.5 139.1 980 65 5 Image Chart
2010 10 30 09 34.1 140.3 985 65 5 Image Chart
2010 10 30 12 34.7 141.6 990 60 4 Image Chart
2010 10 30 15 35.3 142.7 994 55 4 Image Chart
2010 10 30 18 36.0 144.0 998 0 6 Image Chart
2010 10 31 00 37.1 146.7 1004 0 6 Image Chart
2010 10 31 06 37.7 148.2 1010 0 6 Image Chart
2010 10 31 12 38.3 149.6 1012 0 6 Image Chart
2010 10 31 18 39.1 150.3 1012 0 6 Image Chart
2010 11 1 00 39.9 150.9 1012 0 6 Image Chart
Japan Meteorological Agency Best Track Data | Correction Date : 2010-12-14
< Typhoon 201013 2010 Season Typhoon 201101 >

Help